Terminal Aerodrome Forecast
Issued by NWS

Home | Current Version | Previous Version | Text Only | Print | Product List | Glossary On
Versions: 1 2 3 4 5 6 7 8 9 10 11 12 13 14 15 16 17 18 19 20 21 22 23 24 25 26
000
FTPQ31 PGUM 020500
TAFPQ
TAF

PTKK 020520Z 0206/0306 VRB05KT P6SM VCSH SCT013 SCT030 BKN120
     FM020800 32008KT 6SM SHRA SCT012 SCT025 BKN120
      TEMPO 0209/0213 VRB12G20KT 3SM +TSRA SCT010CB OVC025=

USA.gov is the U.S. government's official web portal to all federal, state and local government web resources and services.